Time;durP1;ratioP1;P1;durP2;ratioP2;P2;SDS_P1;SDS_P2;PMS_P1;PMS_P2;Temp;Humidity;BMP_temperature;BMP_pressure;BME280_temperature;BME280_humidity;BME280_pressure;Samples;Min_cycle;Max_cycle;Signal;HPM_P1;HPM_P2
2022/10/08 00:04:20;;;;;;;16.63;15.03;;;;;17.00;99146.00;;;;16456894;28;20307;-47
2022/10/08 00:12:24;;;;;;;19.43;17.40;;;;;17.20;99138.00;;;;16451789;28;20536;-47
2022/10/08 00:20:26;;;;;;;19.23;17.23;;;;;17.00;99126.00;;;;16460001;28;20237;-48
2022/10/08 00:28:30;;;;;;;17.20;15.50;;;;;16.60;99131.00;;;;16460637;28;20680;-48
2022/10/08 00:36:36;;;;;;;16.67;15.17;;;;;16.80;99131.00;;;;16459255;28;20231;-48
2022/10/08 00:44:53;;;;;;;15.30;13.77;;;;;16.70;99125.00;;;;16453907;28;20748;-48
2022/10/08 00:52:58;;;;;;;16.23;14.70;;;;;17.00;99132.00;;;;16453252;28;20396;-47
2022/10/08 01:01:02;;;;;;;16.77;15.03;;;;;16.00;99132.00;;;;16456093;28;20228;-47
2022/10/08 01:09:11;;;;;;;17.93;16.03;;;;;15.90;99137.00;;;;16455002;28;20261;-47
2022/10/08 01:17:21;;;;;;;19.57;17.57;;;;;16.40;99125.00;;;;16460785;28;20224;-48
2022/10/08 01:25:34;;;;;;;20.20;18.37;;;;;16.50;99120.00;;;;16460715;28;20242;-47
2022/10/08 01:33:42;;;;;;;21.77;18.47;;;;;16.60;99113.00;;;;16502604;23;20321;-48
2022/10/08 01:41:50;;;;;;;19.30;17.50;;;;;16.70;99100.00;;;;16520900;28;20466;-48
2022/10/08 01:49:57;;;;;;;20.93;18.83;;;;;16.60;99110.00;;;;16523761;28;20216;-47
2022/10/08 01:58:02;;;;;;;20.43;18.53;;;;;16.60;99100.00;;;;16522087;28;20220;-47
2022/10/08 02:06:09;;;;;;;19.70;17.90;;;;;16.60;99098.00;;;;16519339;28;20226;-48
2022/10/08 02:14:11;;;;;;;19.63;17.30;;;;;16.50;99090.00;;;;16522929;28;20224;-48
2022/10/08 02:22:18;;;;;;;20.17;18.17;;;;;16.60;99087.00;;;;16522463;28;20231;-48
2022/10/08 02:30:21;;;;;;;17.87;16.17;;;;;16.50;99085.00;;;;16518620;28;20237;-48
2022/10/08 02:38:27;;;;;;;19.93;18.13;;;;;16.80;99081.00;;;;16520749;28;20222;-48
2022/10/08 02:46:34;;;;;;;20.90;18.60;;;;;16.50;99085.00;;;;16519917;28;20262;-48
2022/10/08 02:54:40;;;;;;;20.47;18.37;;;;;16.50;99088.00;;;;16516827;28;20243;-48
2022/10/08 03:02:45;;;;;;;20.87;18.87;;;;;16.80;99084.00;;;;16519850;28;20223;-48
2022/10/08 03:10:49;;;;;;;25.10;19.50;;;;;16.80;99090.00;;;;16518318;28;21050;-48
2022/10/08 03:18:52;;;;;;;20.43;17.37;;;;;16.80;99096.00;;;;16518842;28;20581;-48
2022/10/08 03:26:56;;;;;;;15.03;13.60;;;;;15.90;99103.00;;;;16518272;28;20242;-48
2022/10/08 03:34:58;;;;;;;15.50;14.00;;;;;15.40;99115.00;;;;16516905;28;20266;-48
2022/10/08 03:43:03;;;;;;;15.93;14.47;;;;;15.80;99122.00;;;;16517194;28;20706;-48
2022/10/08 03:51:08;;;;;;;19.77;15.50;;;;;15.50;99127.00;;;;16516544;28;20589;-48
2022/10/08 03:59:11;;;;;;;17.37;15.63;;;;;15.60;99141.00;;;;16515796;28;20350;-48
2022/10/08 04:07:14;;;;;;;15.30;13.90;;;;;16.00;99145.00;;;;16514581;28;20243;-48
2022/10/08 04:15:18;;;;;;;16.93;14.40;;;;;16.20;99143.00;;;;16516389;28;20219;-48
2022/10/08 04:23:21;;;;;;;15.60;14.10;;;;;15.80;99145.00;;;;16513555;28;20238;-48
2022/10/08 04:31:25;;;;;;;15.40;14.00;;;;;16.00;99154.00;;;;16519611;28;20725;-48
2022/10/08 04:39:27;;;;;;;15.07;13.47;;;;;15.90;99162.00;;;;16515712;28;20742;-48
2022/10/08 04:47:31;;;;;;;15.80;14.17;;;;;16.40;99155.00;;;;16515082;28;20196;-48
2022/10/08 04:55:33;;;;;;;15.53;14.00;;;;;16.20;99162.00;;;;16505213;28;20220;-48
2022/10/08 05:03:38;;;;;;;16.07;12.80;;;;;16.10;99178.00;;;;16500578;28;20720;-48
2022/10/08 05:11:41;;;;;;;14.70;13.27;;;;;16.00;99188.00;;;;16506464;28;20821;-48
2022/10/08 05:19:45;;;;;;;14.93;13.70;;;;;15.80;99191.00;;;;16509602;28;20224;-48
2022/10/08 05:27:49;;;;;;;13.60;12.37;;;;;16.50;99178.00;;;;16502799;28;20215;-48
2022/10/08 05:35:53;;;;;;;14.60;13.40;;;;;16.70;99183.00;;;;16502629;28;20235;-48
2022/10/08 05:43:56;;;;;;;12.97;11.50;;;;;16.40;99191.00;;;;16499033;28;20231;-48
2022/10/08 05:52:01;;;;;;;14.93;13.33;;;;;16.20;99203.00;;;;16505463;28;20271;-48
2022/10/08 06:00:03;;;;;;;13.87;12.30;;;;;15.80;99213.00;;;;16509100;28;20230;-48
2022/10/08 06:08:15;;;;;;;14.67;12.13;;;;;15.70;99218.00;;;;16502701;28;20293;-48
2022/10/08 06:16:17;;;;;;;14.17;12.20;;;;;15.80;99224.00;;;;16510664;28;20262;-48
2022/10/08 06:24:21;;;;;;;13.70;12.57;;;;;15.40;99238.00;;;;16491031;28;20223;-48
2022/10/08 06:32:23;;;;;;;13.27;12.00;;;;;15.90;99247.00;;;;16512517;28;20865;-48
2022/10/08 06:40:27;;;;;;;16.10;12.43;;;;;15.70;99249.00;;;;16519340;28;20238;-48
2022/10/08 06:48:30;;;;;;;13.90;12.07;;;;;16.50;99251.00;;;;16491295;28;20200;-48
2022/10/08 06:56:34;;;;;;;14.17;12.50;;;;;16.20;99257.00;;;;16493828;28;20235;-47
2022/10/08 07:04:37;;;;;;;12.57;11.57;;;;;16.30;99263.00;;;;16496242;28;20268;-48
2022/10/08 07:12:41;;;;;;;13.67;11.20;;;;;16.70;99279.00;;;;16504331;28;20220;-48
2022/10/08 07:20:43;;;;;;;11.90;10.70;;;;;17.50;99268.00;;;;16498525;28;20239;-49
2022/10/08 07:28:50;;;;;;;13.53;12.13;;;;;17.60;99276.00;;;;16497049;28;20812;-47
2022/10/08 07:36:53;;;;;;;15.00;12.70;;;;;19.20;99283.00;;;;16508966;28;20238;-49
2022/10/08 07:44:56;;;;;;;11.63;9.90;;;;;18.60;99295.00;;;;16514510;28;20246;-48
2022/10/08 07:52:59;;;;;;;10.40;8.03;;;;;18.30;99305.00;;;;16518644;28;20611;-48
2022/10/08 08:01:04;;;;;;;11.73;6.80;;;;;18.20;99307.00;;;;16495072;28;20231;-48
2022/10/08 08:09:06;;;;;;;13.00;7.13;;;;;18.30;99295.00;;;;16504301;28;20271;-48
2022/10/08 08:17:10;;;;;;;8.03;5.57;;;;;18.40;99313.00;;;;16505884;28;20226;-48
2022/10/08 08:25:12;;;;;;;8.63;5.60;;;;;18.10;99318.00;;;;16515001;28;20384;-49
2022/10/08 08:33:16;;;;;;;11.03;5.00;;;;;18.10;99327.00;;;;16520663;28;20228;-48
2022/10/08 08:41:40;;;;;;;9.80;4.40;;;;;18.40;99338.00;;;;16524184;28;20246;-48
2022/10/08 08:49:46;;;;;;;5.80;3.37;;;;;18.20;99345.00;;;;16528049;28;20698;-48
2022/10/08 08:57:52;;;;;;;6.17;4.10;;;;;18.40;99340.00;;;;16526756;28;20227;-48
2022/10/08 09:05:58;;;;;;;10.50;4.40;;;;;18.70;99335.00;;;;16547418;23;20227;-48
2022/10/08 09:14:04;;;;;;;13.73;3.70;;;;;18.70;99344.00;;;;16457651;28;20201;-48
2022/10/08 09:22:19;;;;;;;9.03;3.50;;;;;19.60;99338.00;;;;16458513;28;20228;-48
2022/10/08 09:30:36;;;;;;;8.30;3.10;;;;;19.70;99335.00;;;;16456749;28;20229;-48
2022/10/08 09:38:40;;;;;;;5.50;2.80;;;;;19.20;99349.00;;;;16454925;28;20628;-47
2022/10/08 09:46:42;;;;;;;7.87;3.23;;;;;19.70;99348.00;;;;16456959;28;20236;-48
2022/10/08 09:54:48;;;;;;;7.20;2.67;;;;;19.50;99348.00;;;;16457524;28;20211;-47
2022/10/08 10:02:53;;;;;;;14.53;4.33;;;;;19.70;99356.00;;;;16457524;28;20311;-48
2022/10/08 10:10:59;;;;;;;4.93;2.90;;;;;19.20;99361.00;;;;16456642;28;20241;-48
2022/10/08 10:19:08;;;;;;;6.87;3.10;;;;;19.40;99371.00;;;;16459674;28;20227;-48
2022/10/08 10:27:15;;;;;;;13.53;2.90;;;;;19.60;99354.00;;;;16454516;28;20692;-47
2022/10/08 10:35:25;;;;;;;14.13;3.27;;;;;20.20;99351.00;;;;16455791;28;20240;-47
2022/10/08 10:43:36;;;;;;;4.63;2.53;;;;;20.20;99358.00;;;;16451442;28;20233;-47
2022/10/08 10:51:53;;;;;;;6.97;3.10;;;;;20.00;99356.00;;;;16455869;28;20217;-48
2022/10/08 11:00:04;;;;;;;12.17;4.33;;;;;20.00;99363.00;;;;16453686;28;20228;-48
2022/10/08 11:08:30;;;;;;;5.80;3.07;;;;;20.70;99352.00;;;;16449918;28;20235;-48
2022/10/08 11:16:47;;;;;;;11.53;3.40;;;;;21.30;99352.00;;;;16455552;28;20696;-47
2022/10/08 11:25:00;;;;;;;5.33;2.77;;;;;20.80;99355.00;;;;16452397;28;20224;-48
2022/10/08 11:33:05;;;;;;;7.50;2.07;;;;;20.40;99351.00;;;;16450649;28;20222;-48
2022/10/08 11:41:15;;;;;;;6.13;2.50;;;;;21.10;99345.00;;;;16452062;28;20596;-46
2022/10/08 11:49:52;;;;;;;6.27;2.40;;;;;21.80;99351.00;;;;16450537;28;20593;-48
2022/10/08 11:57:56;;;;;;;7.80;2.57;;;;;21.30;99348.00;;;;16399963;28;20239;-47
2022/10/08 12:06:13;;;;;;;9.00;4.70;;;;;21.10;99357.00;;;;16450021;28;20201;-48
2022/10/08 12:14:47;;;;;;;7.37;4.13;;;;;20.70;99374.00;;;;16448098;28;20215;-48
2022/10/08 12:23:02;;;;;;;7.43;2.90;;;;;21.40;99351.00;;;;16451030;28;20224;-48
2022/10/08 12:31:31;;;;;;;5.53;2.70;;;;;20.20;99359.00;;;;16444533;28;20218;-48
2022/10/08 12:39:39;;;;;;;4.20;1.80;;;;;22.30;99355.00;;;;16433386;28;20311;-48
2022/10/08 12:47:47;;;;;;;5.80;3.43;;;;;21.30;99371.00;;;;16411145;28;20312;-48
2022/10/08 12:55:53;;;;;;;3.30;2.70;;;;;20.40;99375.00;;;;16419239;28;20292;-48
2022/10/08 13:04:17;;;;;;;8.40;2.87;;;;;20.00;99390.00;;;;16426602;28;20230;-47
2022/10/08 13:12:21;;;;;;;5.00;2.37;;;;;20.60;99382.00;;;;16428719;28;20220;-48
2022/10/08 13:20:24;;;;;;;8.50;3.00;;;;;20.70;99386.00;;;;16429476;28;20825;-48
2022/10/08 13:28:28;;;;;;;4.07;2.13;;;;;20.80;99376.00;;;;16431951;28;20894;-48
2022/10/08 13:36:30;;;;;;;5.07;2.20;;;;;21.70;99373.00;;;;16425100;28;20225;-48
2022/10/08 13:44:34;;;;;;;6.80;3.03;;;;;21.80;99378.00;;;;16419497;28;20221;-48
2022/10/08 13:52:37;;;;;;;3.83;1.93;;;;;21.50;99375.00;;;;16426206;28;20228;-48
2022/10/08 14:00:42;;;;;;;3.10;1.60;;;;;21.30;99370.00;;;;16430160;28;20225;-48
2022/10/08 14:08:45;;;;;;;4.00;1.93;;;;;21.30;99366.00;;;;16438724;28;20307;-48
2022/10/08 14:16:48;;;;;;;2.70;1.70;;;;;21.10;99376.00;;;;16444943;28;20229;-48
2022/10/08 14:24:51;;;;;;;8.33;2.70;;;;;21.00;99381.00;;;;16440034;28;20228;-48
2022/10/08 14:32:55;;;;;;;3.43;2.13;;;;;20.70;99382.00;;;;16432928;28;20221;-48
2022/10/08 14:40:58;;;;;;;4.43;1.60;;;;;20.60;99381.00;;;;16428833;28;20229;-48
2022/10/08 14:49:03;;;;;;;2.43;1.63;;;;;20.80;99372.00;;;;16429470;28;20220;-48
2022/10/08 14:57:06;;;;;;;3.33;1.90;;;;;22.40;99373.00;;;;16428666;28;20586;-47
2022/10/08 15:05:10;;;;;;;4.40;1.80;;;;;22.00;99365.00;;;;16443941;28;20307;-49
2022/10/08 15:13:13;;;;;;;3.83;1.60;;;;;20.50;99386.00;;;;16441894;28;20236;-48
2022/10/08 15:21:17;;;;;;;2.43;1.83;;;;;19.90;99385.00;;;;16465293;23;20240;-47
2022/10/08 15:29:19;;;;;;;2.57;1.57;;;;;19.90;99388.00;;;;16451776;28;20209;-49
2022/10/08 15:37:24;;;;;;;6.60;1.60;;;;;21.00;99396.00;;;;16437258;28;20234;-50
2022/10/08 15:45:27;;;;;;;2.53;1.33;;;;;19.70;99405.00;;;;16440729;28;20228;-49
2022/10/08 15:53:34;;;;;;;3.83;1.70;;;;;19.40;99411.00;;;;16440996;28;20235;-49
2022/10/08 16:01:36;;;;;;;3.87;2.70;;;;;19.00;99423.00;;;;16445521;28;20496;-49
2022/10/08 16:09:41;;;;;;;5.10;2.90;;;;;19.10;99429.00;;;;16440747;28;20213;-48
2022/10/08 16:17:43;;;;;;;3.20;1.57;;;;;18.80;99438.00;;;;16444188;28;20238;-49
2022/10/08 16:25:47;;;;;;;3.83;1.83;;;;;18.80;99446.00;;;;16449007;28;20224;-49
2022/10/08 16:33:55;;;;;;;4.27;1.67;;;;;18.40;99444.00;;;;16449217;28;20223;-48
2022/10/08 16:41:59;;;;;;;6.70;1.60;;;;;17.60;99460.00;;;;16452944;28;20235;-48
2022/10/08 16:50:02;;;;;;;4.17;2.67;;;;;17.00;99478.00;;;;16447551;28;20224;-49
2022/10/08 16:58:06;;;;;;;8.50;4.47;;;;;16.70;99494.00;;;;16457849;28;20201;-49
2022/10/08 17:06:10;;;;;;;5.80;3.60;;;;;17.30;99508.00;;;;16460314;28;20720;-49
2022/10/08 17:14:14;;;;;;;4.53;3.53;;;;;16.60;99515.00;;;;16450597;28;20308;-49
2022/10/08 17:22:16;;;;;;;9.73;4.83;;;;;15.90;99529.00;;;;16457046;28;20228;-49
2022/10/08 17:30:20;;;;;;;8.73;5.03;;;;;15.60;99543.00;;;;16461913;28;20232;-49
2022/10/08 17:38:22;;;;;;;11.87;4.90;;;;;15.10;99555.00;;;;16461772;28;20239;-49
2022/10/08 17:46:28;;;;;;;5.53;3.27;;;;;15.00;99569.00;;;;16457401;28;20644;-49
2022/10/08 17:54:30;;;;;;;10.00;5.93;;;;;14.60;99589.00;;;;16460922;28;20263;-49
2022/10/08 18:02:34;;;;;;;6.30;3.80;;;;;14.40;99601.00;;;;16461938;28;20254;-49
2022/10/08 18:10:37;;;;;;;8.30;3.67;;;;;14.30;99612.00;;;;16455482;28;20308;-49
2022/10/08 18:18:41;;;;;;;10.13;6.50;;;;;14.10;99621.00;;;;16452148;28;20256;-48
2022/10/08 18:26:44;;;;;;;5.50;4.63;;;;;14.00;99627.00;;;;16457778;28;20575;-50
2022/10/08 18:34:48;;;;;;;10.33;4.00;;;;;13.70;99646.00;;;;16453597;28;20236;-51
2022/10/08 18:42:50;;;;;;;6.77;4.70;;;;;13.70;99647.00;;;;16453334;28;20241;-49
2022/10/08 18:50:54;;;;;;;9.80;5.00;;;;;13.60;99655.00;;;;16454388;28;20728;-50
2022/10/08 18:58:57;;;;;;;10.57;5.13;;;;;13.30;99657.00;;;;16446031;28;20872;-49
2022/10/08 19:07:01;;;;;;;5.87;4.10;;;;;13.30;99667.00;;;;16459744;28;20217;-49
2022/10/08 19:15:06;;;;;;;8.57;5.17;;;;;13.20;99671.00;;;;16451128;28;20217;-49
2022/10/08 19:23:09;;;;;;;10.37;5.97;;;;;13.40;99672.00;;;;16453519;28;20232;-49
2022/10/08 19:31:13;;;;;;;11.60;6.10;;;;;13.10;99688.00;;;;16453565;28;20219;-49
2022/10/08 19:39:17;;;;;;;5.77;4.80;;;;;13.00;99689.00;;;;16451472;28;20231;-48
2022/10/08 19:47:20;;;;;;;7.57;5.97;;;;;12.90;99710.00;;;;16450981;28;20211;-49
2022/10/08 19:55:24;;;;;;;14.03;6.37;;;;;12.80;99714.00;;;;16449665;28;20235;-49
2022/10/08 20:03:26;;;;;;;14.03;8.47;;;;;13.60;99719.00;;;;16450808;28;20719;-49
2022/10/08 20:11:31;;;;;;;11.40;6.93;;;;;12.80;99733.00;;;;16458335;28;20217;-49
2022/10/08 20:19:34;;;;;;;19.73;14.00;;;;;13.10;99738.00;;;;16449903;28;20237;-50
2022/10/08 20:27:37;;;;;;;20.80;16.40;;;;;12.90;99747.00;;;;16459574;28;20216;-49
2022/10/08 20:35:40;;;;;;;6.53;5.60;;;;;12.70;99750.00;;;;16471317;28;20225;-50
2022/10/08 20:53:08;;;;;;;11.50;9.00;;;;;12.90;99747.00;;;;16474256;28;20218;-50
2022/10/08 21:01:12;;;;;;;16.60;10.50;;;;;12.80;99748.00;;;;16472540;28;20359;-50
2022/10/08 21:09:20;;;;;;;13.20;9.70;;;;;13.30;99749.00;;;;16474784;28;20271;-50
2022/10/08 21:17:22;;;;;;;10.70;9.60;;;;;13.10;99756.00;;;;16485177;28;20205;-49
2022/10/08 21:25:26;;;;;;;12.27;9.07;;;;;13.10;99749.00;;;;16482160;28;20753;-49
2022/10/08 21:33:28;;;;;;;7.97;6.47;;;;;12.50;99763.00;;;;16469143;28;20225;-50
2022/10/08 21:41:33;;;;;;;16.13;7.23;;;;;12.60;99763.00;;;;16473389;28;20220;-49
2022/10/08 21:49:36;;;;;;;9.43;8.50;;;;;13.20;99763.00;;;;16464719;28;20233;-48
2022/10/08 21:57:39;;;;;;;7.33;6.10;;;;;12.80;99764.00;;;;16460250;28;20211;-48
2022/10/08 22:05:50;;;;;;;9.43;6.40;;;;;12.50;99774.00;;;;16475167;28;20719;-47
2022/10/08 22:13:54;;;;;;;9.83;7.10;;;;;12.30;99774.00;;;;16469015;28;20264;-48
2022/10/08 22:21:58;;;;;;;8.33;6.50;;;;;12.10;99758.00;;;;16465831;28;20224;-48
2022/10/08 22:30:02;;;;;;;9.10;7.43;;;;;12.20;99763.00;;;;16472575;28;20609;-49
2022/10/08 22:38:04;;;;;;;9.07;7.10;;;;;12.40;99759.00;;;;16462402;28;20216;-48
2022/10/08 22:46:10;;;;;;;9.00;6.90;;;;;12.50;99756.00;;;;16456445;28;20693;-48
2022/10/08 22:54:13;;;;;;;7.07;6.00;;;;;11.60;99762.00;;;;16458224;28;20219;-48
2022/10/08 23:02:16;;;;;;;8.57;6.40;;;;;11.60;99758.00;;;;16456098;28;20220;-48
2022/10/08 23:10:19;;;;;;;9.50;7.50;;;;;11.50;99761.00;;;;16461600;28;20224;-47
2022/10/08 23:18:22;;;;;;;8.40;7.00;;;;;11.50;99758.00;;;;16457217;28;20201;-48
2022/10/08 23:26:25;;;;;;;13.70;6.80;;;;;12.20;99746.00;;;;16464197;28;20340;-47
2022/10/08 23:34:29;;;;;;;8.27;7.27;;;;;11.70;99751.00;;;;16453549;28;20355;-48
2022/10/08 23:42:31;;;;;;;7.80;6.70;;;;;11.40;99759.00;;;;16454701;28;20235;-48
2022/10/08 23:50:37;;;;;;;6.40;5.80;;;;;11.40;99750.00;;;;16463427;28;20822;-48
2022/10/08 23:58:40;;;;;;;8.87;6.10;;;;;11.40;99744.00;;;;16463504;28;20227;-48
